createdAt,value
2017-11-12T00:00:49.104Z,91.99
2017-11-12T00:01:49.016Z,92.46
2017-11-12T00:02:48.942Z,92.74
2017-11-12T00:03:48.843Z,92.65
2017-11-12T00:04:48.757Z,92.74
2017-11-12T00:05:48.675Z,92.84
2017-11-12T00:06:48.597Z,92.08
2017-11-12T00:07:48.502Z,92.27
2017-11-12T00:08:48.417Z,92.18
2017-11-12T00:09:48.350Z,91.99
2017-11-12T00:10:48.252Z,92.36
2017-11-12T00:11:48.166Z,92.27
2017-11-12T00:12:48.076Z,92.32
2017-11-12T00:13:48.009Z,91.79
2017-11-12T00:14:47.907Z,92.18
2017-11-12T00:15:47.826Z,92.36
2017-11-12T00:16:47.759Z,91.41
2017-11-12T00:17:47.665Z,91.89
2017-11-12T00:18:47.576Z,91.70
2017-11-12T00:19:47.486Z,92.65
2017-11-12T00:20:47.412Z,92.55
2017-11-12T00:21:47.315Z,92.32
2017-11-12T00:22:47.232Z,93.27
2017-11-12T00:23:47.166Z,93.37
2017-11-12T00:24:47.260Z,93.51
2017-11-12T00:25:46.985Z,92.36
2017-11-12T00:26:46.895Z,92.55
2017-11-12T00:27:46.800Z,92.51
2017-11-12T00:28:46.722Z,92.84
2017-11-12T00:29:46.640Z,92.74
2017-11-12T00:30:46.554Z,92.99
2017-11-12T00:31:46.494Z,93.22
2017-11-12T00:32:46.373Z,92.74
2017-11-12T00:33:46.299Z,92.65
2017-11-12T00:34:46.200Z,92.74
2017-11-12T00:35:46.120Z,92.84
2017-11-12T00:36:46.035Z,92.94
2017-11-12T00:37:45.945Z,91.60
2017-11-12T00:38:45.871Z,92.08
2017-11-12T00:39:45.793Z,91.60
2017-11-12T00:40:45.686Z,91.60
2017-11-12T00:41:45.609Z,91.99
2017-11-12T00:42:45.516Z,91.51
2017-11-12T00:43:45.431Z,92.18
2017-11-12T00:44:45.348Z,92.84
2017-11-12T00:45:45.262Z,92.18
2017-11-12T00:46:45.176Z,92.27
2017-11-12T00:47:45.088Z,92.18
2017-11-12T00:48:45.034Z,92.03
2017-11-12T00:49:44.925Z,92.65
2017-11-12T00:50:44.832Z,92.36
2017-11-12T00:51:44.752Z,92.41
2017-11-12T00:52:44.662Z,92.51
2017-11-12T00:53:44.579Z,92.51
2017-11-12T00:54:44.494Z,92.60
2017-11-12T00:55:44.419Z,92.03
2017-11-12T00:56:44.318Z,92.32
2017-11-12T00:57:44.224Z,92.13
2017-11-12T00:58:44.141Z,92.22
2017-11-12T00:59:44.056Z,92.13
2017-11-12T01:00:43.974Z,92.18
2017-11-12T01:01:43.895Z,91.70
2017-11-12T01:02:43.800Z,91.70
2017-11-12T01:03:43.715Z,91.22
2017-11-12T01:04:43.632Z,91.27
2017-11-12T01:05:43.548Z,91.37
2017-11-12T01:06:43.454Z,92.32
2017-11-12T01:07:43.364Z,91.60
2017-11-12T01:08:43.288Z,91.41
2017-11-12T01:09:43.191Z,91.51
2017-11-12T01:10:43.115Z,91.31
2017-11-12T01:11:43.032Z,91.13
2017-11-12T01:12:42.956Z,91.41
2017-11-12T01:13:42.861Z,91.22
2017-11-12T01:14:42.767Z,91.13
2017-11-12T01:15:42.685Z,91.31
2017-11-12T01:16:42.593Z,91.22
2017-11-12T01:17:42.516Z,91.41
2017-11-12T01:18:42.424Z,91.41
2017-11-12T01:19:42.373Z,91.60
2017-11-12T01:20:42.270Z,91.27
2017-11-12T01:21:42.173Z,91.46
2017-11-12T01:22:42.093Z,91.84
2017-11-12T01:23:41.999Z,91.65
2017-11-12T01:24:41.915Z,92.79
2017-11-12T01:25:41.828Z,92.79
2017-11-12T01:26:41.743Z,92.51
2017-11-12T01:27:41.664Z,92.22
2017-11-12T01:28:41.567Z,92.22
2017-11-12T01:29:41.488Z,92.13
2017-11-12T01:30:41.399Z,91.94
2017-11-12T01:31:41.363Z,91.75
2017-11-12T01:32:41.226Z,91.94
2017-11-12T01:33:41.152Z,91.65
2017-11-12T01:34:41.050Z,91.17
2017-11-12T01:35:40.973Z,91.27
2017-11-12T01:36:40.890Z,91.08
2017-11-12T01:37:40.793Z,91.27
2017-11-12T01:38:40.717Z,91.17
2017-11-12T01:39:40.628Z,91.27
2017-11-12T01:40:40.538Z,91.65
2017-11-12T01:41:40.450Z,91.17
2017-11-12T01:42:40.367Z,91.08
2017-11-12T01:43:40.285Z,90.51
2017-11-12T01:44:40.195Z,90.80
2017-11-12T01:45:40.156Z,91.37
2017-11-12T01:46:40.023Z,91.17
2017-11-12T01:47:39.940Z,91.37
2017-11-12T01:48:39.856Z,90.70
2017-11-12T01:49:39.763Z,91.27
2017-11-12T01:50:39.691Z,91.37
2017-11-12T01:51:39.595Z,91.65
2017-11-12T01:52:39.508Z,90.89
2017-11-12T01:53:39.441Z,90.22
2017-11-12T01:54:39.404Z,89.75
2017-11-12T01:55:39.251Z,90.61
2017-11-12T01:56:39.171Z,90.32
2017-11-12T01:57:39.076Z,90.51
2017-11-12T01:58:38.992Z,90.32
2017-11-12T01:59:38.908Z,90.80
2017-11-12T02:00:38.827Z,90.75
2017-11-12T02:01:38.744Z,90.56
2017-11-12T02:02:38.654Z,90.17
2017-11-12T02:03:38.575Z,90.75
2017-11-12T02:04:38.480Z,89.65
2017-11-12T02:05:38.401Z,90.80
2017-11-12T02:06:38.312Z,90.51
2017-11-12T02:07:38.225Z,90.22
2017-11-12T02:08:38.142Z,90.70
2017-11-12T02:09:38.049Z,89.75
2017-11-12T02:10:37.974Z,90.80
2017-11-12T02:11:37.900Z,90.61
2017-11-12T02:12:37.798Z,90.70
2017-11-12T02:13:37.715Z,90.42
2017-11-12T02:14:37.637Z,89.75
2017-11-12T02:15:37.541Z,90.42
2017-11-12T02:16:37.460Z,90.03
2017-11-12T02:17:37.369Z,90.46
2017-11-12T02:18:37.282Z,89.65
2017-11-12T02:19:37.193Z,89.79
2017-11-12T02:20:37.117Z,89.98
2017-11-12T02:21:37.029Z,89.89
2017-11-12T02:22:36.950Z,89.79
2017-11-12T02:23:36.854Z,89.27
2017-11-12T02:24:36.763Z,89.79
2017-11-12T02:25:36.683Z,89.56
2017-11-12T02:26:36.597Z,89.75
2017-11-12T02:27:36.511Z,89.79
2017-11-12T02:28:36.423Z,89.94
2017-11-12T02:29:36.336Z,89.37
2017-11-12T02:30:36.266Z,89.84
2017-11-12T02:31:36.172Z,89.84
2017-11-12T02:32:36.080Z,89.65
2017-11-12T02:33:35.994Z,89.75
2017-11-12T02:34:35.911Z,90.51
2017-11-12T02:35:35.834Z,90.89
2017-11-12T02:36:35.747Z,90.61
2017-11-12T02:37:35.660Z,89.94
2017-11-12T02:38:35.560Z,90.22
2017-11-12T02:39:35.484Z,89.94
2017-11-12T02:40:35.396Z,90.13
2017-11-12T02:41:35.309Z,89.75
2017-11-12T02:42:35.223Z,89.94
2017-11-12T02:43:35.137Z,89.56
2017-11-12T02:44:35.059Z,90.32
2017-11-12T02:45:34.970Z,90.13
2017-11-12T02:46:34.880Z,90.13
2017-11-12T02:47:34.797Z,89.47
2017-11-12T02:48:34.709Z,89.65
2017-11-12T02:49:34.634Z,89.94
2017-11-12T02:50:34.537Z,90.13
2017-11-12T02:51:34.462Z,90.32
2017-11-12T02:52:34.370Z,89.70
2017-11-12T02:53:34.282Z,89.79
2017-11-12T02:54:34.194Z,89.79
2017-11-12T02:55:34.109Z,89.41
2017-11-12T02:56:34.028Z,89.84
2017-11-12T02:57:33.946Z,89.75
2017-11-12T02:58:33.853Z,89.84
2017-11-12T02:59:33.765Z,89.84
2017-11-12T03:00:33.686Z,90.70
2017-11-12T03:01:33.608Z,90.89
2017-11-12T03:02:33.515Z,90.17
2017-11-12T03:03:33.429Z,89.61
2017-11-12T03:04:33.381Z,89.75
2017-11-12T03:05:33.254Z,89.65
2017-11-12T03:06:33.178Z,89.65
2017-11-12T03:07:33.094Z,89.27
2017-11-12T03:08:33.004Z,89.94
2017-11-12T03:09:32.925Z,89.56
2017-11-12T03:10:32.831Z,89.98
2017-11-12T03:11:32.747Z,89.89
2017-11-12T03:12:32.659Z,89.70
2017-11-12T03:13:32.593Z,89.79
2017-11-12T03:14:32.491Z,89.51
2017-11-12T03:15:32.402Z,88.75
2017-11-12T03:16:32.339Z,88.99
2017-11-12T03:17:32.235Z,88.93
2017-11-12T03:18:32.146Z,89.08
2017-11-12T03:19:32.065Z,89.03
2017-11-12T03:20:31.974Z,89.18
2017-11-12T03:21:31.891Z,89.22
2017-11-12T03:22:31.804Z,89.27
2017-11-12T03:23:31.721Z,89.56
2017-11-12T03:24:31.659Z,89.75
2017-11-12T03:25:31.564Z,89.56
2017-11-12T03:26:31.461Z,90.51
2017-11-12T03:27:31.379Z,90.32
2017-11-12T03:28:31.293Z,89.94
2017-11-12T03:29:31.209Z,89.75
2017-11-12T03:30:31.125Z,89.32
2017-11-12T03:31:31.035Z,89.37
2017-11-12T03:32:30.953Z,89.27
2017-11-12T03:33:30.885Z,89.18
2017-11-12T03:34:30.777Z,89.18
2017-11-12T03:35:30.694Z,89.18
2017-11-12T03:36:30.635Z,89.75
2017-11-12T03:37:30.530Z,89.56
2017-11-12T03:38:30.431Z,89.56
2017-11-12T03:39:30.356Z,89.65
2017-11-12T03:40:30.261Z,89.65
2017-11-12T03:41:30.175Z,89.65
2017-11-12T03:42:30.097Z,88.99
2017-11-12T03:43:30.009Z,89.27
2017-11-12T03:44:29.919Z,89.27
2017-11-12T03:45:29.840Z,89.65
2017-11-12T03:46:29.765Z,89.56
2017-11-12T03:47:29.668Z,89.47
2017-11-12T03:48:29.580Z,89.98
2017-11-12T03:49:29.497Z,89.65
2017-11-12T03:50:29.407Z,89.47
2017-11-12T03:51:29.327Z,88.89
2017-11-12T03:52:29.244Z,89.13
2017-11-12T03:53:29.149Z,89.22
2017-11-12T03:54:29.066Z,89.51
2017-11-12T03:55:28.979Z,89.41
2017-11-12T03:56:28.894Z,89.51
2017-11-12T03:57:28.809Z,89.32
2017-11-12T03:58:28.750Z,89.13
2017-11-12T03:59:28.639Z,88.99
2017-11-12T04:00:28.563Z,89.32
2017-11-12T04:01:28.466Z,88.84
2017-11-12T04:02:28.392Z,89.32
2017-11-12T04:03:28.299Z,89.18
2017-11-12T04:04:28.215Z,89.32
2017-11-12T04:05:28.130Z,89.41
2017-11-12T04:06:28.051Z,89.13
2017-11-12T04:07:27.958Z,89.32
2017-11-12T04:08:27.876Z,89.61
2017-11-12T04:09:27.786Z,88.75
2017-11-12T04:10:27.716Z,88.60
2017-11-12T04:11:27.623Z,89.18
2017-11-12T04:12:27.530Z,88.46
2017-11-12T04:13:27.450Z,89.03
2017-11-12T04:14:27.383Z,88.60
2017-11-12T04:15:27.288Z,88.75
2017-11-12T04:16:27.204Z,88.75
2017-11-12T04:17:27.111Z,87.79
2017-11-12T04:18:27.024Z,87.89
2017-11-12T04:19:26.948Z,88.37
2017-11-12T04:20:26.858Z,88.37
2017-11-12T04:21:26.772Z,88.08
2017-11-12T04:22:26.686Z,88.08
2017-11-12T04:23:26.607Z,88.08
2017-11-12T04:24:26.522Z,88.18
2017-11-12T04:25:26.428Z,88.37
2017-11-12T04:26:26.342Z,89.03
2017-11-12T04:27:26.262Z,89.03
2017-11-12T04:28:26.179Z,89.22
2017-11-12T04:29:26.089Z,88.37
2017-11-12T04:30:26.006Z,88.27
2017-11-12T04:31:25.923Z,89.22
2017-11-12T04:32:25.854Z,88.37
2017-11-12T04:33:25.785Z,88.46
2017-11-12T04:34:25.676Z,87.70
2017-11-12T04:35:25.585Z,87.85
2017-11-12T04:36:25.505Z,88.23
2017-11-12T04:37:25.411Z,87.94
2017-11-12T04:38:25.323Z,87.89
2017-11-12T04:39:25.241Z,87.70
2017-11-12T04:40:25.156Z,87.03
2017-11-12T04:41:25.066Z,87.08
2017-11-12T04:42:25.001Z,87.18
2017-11-12T04:43:24.897Z,87.85
2017-11-12T04:44:24.815Z,88.04
2017-11-12T04:45:24.726Z,87.65
2017-11-12T04:46:24.644Z,87.37
2017-11-12T04:47:24.560Z,87.65
2017-11-12T04:48:24.476Z,87.37
2017-11-12T04:49:24.395Z,87.51
2017-11-12T04:50:24.303Z,88.18
2017-11-12T04:51:24.220Z,87.60
2017-11-12T04:52:24.133Z,87.70
2017-11-12T04:53:24.045Z,88.18
2017-11-12T04:54:23.961Z,87.79
2017-11-12T04:55:23.881Z,87.27
2017-11-12T04:56:23.792Z,87.18
2017-11-12T04:57:23.707Z,87.70
2017-11-12T04:58:23.631Z,87.60
2017-11-12T04:59:23.545Z,87.94
2017-11-12T05:00:23.450Z,88.37
2017-11-12T05:01:23.372Z,87.85
2017-11-12T05:02:23.289Z,87.98
2017-11-12T05:03:23.194Z,87.75
2017-11-12T05:04:23.124Z,88.23
2017-11-12T05:05:23.029Z,88.04
2017-11-12T05:06:22.948Z,87.65
2017-11-12T05:07:22.856Z,88.04
2017-11-12T05:08:22.775Z,88.04
2017-11-12T05:09:22.686Z,87.85
2017-11-12T05:10:22.606Z,88.04
2017-11-12T05:11:22.525Z,87.85
2017-11-12T05:12:22.431Z,87.46
2017-11-12T05:13:22.341Z,87.37
2017-11-12T05:14:22.261Z,87.94
2017-11-12T05:15:22.191Z,88.23
2017-11-12T05:16:22.094Z,87.75
2017-11-12T05:17:22.008Z,88.23
2017-11-12T05:18:21.922Z,88.13
2017-11-12T05:19:21.837Z,87.85
2017-11-12T05:20:21.815Z,87.85
2017-11-12T05:21:21.672Z,87.94
2017-11-12T05:22:21.578Z,88.32
2017-11-12T05:23:21.499Z,88.99
2017-11-12T05:24:21.417Z,87.65
2017-11-12T05:25:21.335Z,87.94
2017-11-12T05:26:21.245Z,87.94
2017-11-12T05:27:21.152Z,87.94
2017-11-12T05:28:21.071Z,88.04
2017-11-12T05:29:20.984Z,88.04
2017-11-12T05:30:20.912Z,87.75
2017-11-12T05:31:20.818Z,88.04
2017-11-12T05:32:20.730Z,88.04
2017-11-12T05:33:20.640Z,88.42
2017-11-12T05:34:20.557Z,88.32
2017-11-12T05:35:20.474Z,88.42
2017-11-12T05:36:20.393Z,88.13
2017-11-12T05:37:20.305Z,88.04
2017-11-12T05:38:20.221Z,87.85
2017-11-12T05:39:20.133Z,87.94
2017-11-12T05:40:20.062Z,88.04
2017-11-12T05:41:19.965Z,88.13
2017-11-12T05:42:19.884Z,87.94
2017-11-12T05:43:19.881Z,87.65
2017-11-12T05:44:19.707Z,87.94
2017-11-12T05:45:19.620Z,87.94
2017-11-12T05:46:19.534Z,87.85
2017-11-12T05:47:19.448Z,87.85
2017-11-12T05:48:19.357Z,87.85
2017-11-12T05:49:19.272Z,87.94
2017-11-12T05:50:19.193Z,87.46
2017-11-12T05:51:19.106Z,87.37
2017-11-12T05:52:19.017Z,87.46
2017-11-12T05:53:18.931Z,87.75
2017-11-12T05:54:18.850Z,87.85
2017-11-12T05:55:18.776Z,87.65
2017-11-12T05:56:18.674Z,87.65
2017-11-12T05:57:18.589Z,87.56
2017-11-12T05:58:18.499Z,87.75
2017-11-12T05:59:18.418Z,87.65
2017-11-12T06:00:18.340Z,87.56
2017-11-12T06:01:18.254Z,87.65
2017-11-12T06:02:18.161Z,87.75
2017-11-12T06:03:18.074Z,87.46
2017-11-12T06:04:17.998Z,87.85
2017-11-12T06:05:17.910Z,87.56
2017-11-12T06:06:17.831Z,87.65
2017-11-12T06:07:17.736Z,87.94
2017-11-12T06:08:17.646Z,87.85
2017-11-12T06:09:17.572Z,87.85
2017-11-12T06:10:17.478Z,87.71
2017-11-12T06:11:17.392Z,87.99
2017-11-12T06:12:17.307Z,88.09
2017-11-12T06:13:17.216Z,88.09
2017-11-12T06:14:17.141Z,88.18
2017-11-12T06:15:17.050Z,87.80
2017-11-12T06:16:16.986Z,87.71
2017-11-12T06:17:16.876Z,87.94
2017-11-12T06:18:16.807Z,87.75
2017-11-12T06:19:16.736Z,88.13
2017-11-12T06:20:16.626Z,88.13
2017-11-12T06:21:16.540Z,88.04
2017-11-12T06:22:16.452Z,87.75
2017-11-12T06:23:16.358Z,88.13
2017-11-12T06:24:16.275Z,88.13
2017-11-12T06:25:16.193Z,88.04
2017-11-12T06:26:16.116Z,87.65
2017-11-12T06:27:16.019Z,88.04
2017-11-12T06:28:15.931Z,88.04
2017-11-12T06:29:15.850Z,88.13
2017-11-12T06:30:15.759Z,88.13
2017-11-12T06:31:15.693Z,87.94
2017-11-12T06:32:15.589Z,87.75
2017-11-12T06:33:15.501Z,88.42
2017-11-12T06:34:15.426Z,87.46
2017-11-12T06:35:15.335Z,87.85
2017-11-12T06:36:15.259Z,87.56
2017-11-12T06:37:15.163Z,88.04
2017-11-12T06:38:15.073Z,87.85
2017-11-12T06:39:15.002Z,87.56
2017-11-12T06:40:14.909Z,87.85
2017-11-12T06:41:14.821Z,87.94
2017-11-12T06:42:14.739Z,88.51
2017-11-12T06:43:14.668Z,88.23
2017-11-12T06:44:14.579Z,87.85
2017-11-12T06:45:14.479Z,88.32
2017-11-12T06:46:14.391Z,88.42
2017-11-12T06:47:14.310Z,87.94
2017-11-12T06:48:14.227Z,87.94
2017-11-12T06:49:14.137Z,88.23
2017-11-12T06:50:14.048Z,87.94
2017-11-12T06:51:13.990Z,88.13
2017-11-12T06:52:13.890Z,87.94
2017-11-12T06:53:13.796Z,87.65
2017-11-12T06:54:13.714Z,87.75
2017-11-12T06:55:13.620Z,87.85
2017-11-12T06:56:13.539Z,87.85
2017-11-12T06:57:13.449Z,88.04
2017-11-12T06:58:13.363Z,87.85
2017-11-12T06:59:13.283Z,87.85
2017-11-12T07:00:13.196Z,87.94
2017-11-12T07:01:13.116Z,87.65
2017-11-12T07:02:13.024Z,87.75
2017-11-12T07:03:12.941Z,88.42
2017-11-12T07:04:12.855Z,88.23
2017-11-12T07:05:12.765Z,88.23
2017-11-12T07:06:12.693Z,88.75
2017-11-12T07:07:12.600Z,88.94
2017-11-12T07:08:12.517Z,89.18
2017-11-12T07:09:12.431Z,88.79
2017-11-12T07:10:12.360Z,88.89
2017-11-12T07:11:12.258Z,89.37
2017-11-12T07:12:12.173Z,88.70
2017-11-12T07:13:12.082Z,89.14
2017-11-12T07:14:11.999Z,88.99
2017-11-12T07:15:11.911Z,89.04
2017-11-12T07:16:11.832Z,89.08
2017-11-12T07:17:11.745Z,89.08
2017-11-12T07:18:11.697Z,88.89
2017-11-12T07:19:11.612Z,88.89
2017-11-12T07:20:11.486Z,88.70
2017-11-12T07:21:11.404Z,89.27
2017-11-12T07:22:11.318Z,89.89
2017-11-12T07:23:11.232Z,89.56
2017-11-12T07:24:11.155Z,89.75
2017-11-12T07:25:11.059Z,89.56
2017-11-12T07:26:10.965Z,89.47
2017-11-12T07:27:10.885Z,89.75
2017-11-12T07:28:10.797Z,89.75
2017-11-12T07:29:10.716Z,88.99
2017-11-12T07:30:10.628Z,89.08
2017-11-12T07:31:10.537Z,89.18
2017-11-12T07:32:10.465Z,88.89
2017-11-12T07:33:10.365Z,89.18
2017-11-12T07:34:10.279Z,89.08
2017-11-12T07:35:10.205Z,89.08
2017-11-12T07:36:10.124Z,89.89
2017-11-12T07:37:10.025Z,89.51
2017-11-12T07:38:09.934Z,88.99
2017-11-12T07:39:09.855Z,89.27
2017-11-12T07:40:09.770Z,88.99
2017-11-12T07:41:09.681Z,89.27
2017-11-12T07:42:09.594Z,88.89
2017-11-12T07:43:09.510Z,89.08
2017-11-12T07:44:09.419Z,89.08
2017-11-12T07:45:09.338Z,87.85
2017-11-12T07:46:09.251Z,87.94
2017-11-12T07:47:09.164Z,88.04
2017-11-12T07:48:09.078Z,87.75
2017-11-12T07:49:08.994Z,88.23
2017-11-12T07:50:08.904Z,88.04
2017-11-12T07:51:08.840Z,89.18
2017-11-12T07:52:08.739Z,88.60
2017-11-12T07:53:08.644Z,89.37
2017-11-12T07:54:08.561Z,89.37
2017-11-12T07:55:08.476Z,88.99
2017-11-12T07:56:08.397Z,89.37
2017-11-12T07:57:08.312Z,89.08
2017-11-12T07:58:08.213Z,89.75
2017-11-12T07:59:08.128Z,89.65
2017-11-12T08:00:08.048Z,89.27
2017-11-12T08:01:07.957Z,88.99
2017-11-12T08:02:07.876Z,88.99
2017-11-12T08:03:07.783Z,88.42
2017-11-12T08:04:07.776Z,87.75
2017-11-12T08:05:07.617Z,88.99
2017-11-12T08:06:07.525Z,89.18
2017-11-12T08:07:07.444Z,89.18
2017-11-12T08:08:07.350Z,89.27
2017-11-12T08:09:07.268Z,89.42
2017-11-12T08:10:07.182Z,89.37
2017-11-12T08:11:07.100Z,88.99
2017-11-12T08:12:07.012Z,88.79
2017-11-12T08:13:06.925Z,88.99
2017-11-12T08:14:06.840Z,87.85
2017-11-12T08:15:06.748Z,88.32
2017-11-12T08:16:06.665Z,89.32
2017-11-12T08:17:06.587Z,88.99
2017-11-12T08:18:06.492Z,88.70
2017-11-12T08:19:06.413Z,88.99
2017-11-12T08:20:06.322Z,88.51
2017-11-12T08:21:06.252Z,88.99
2017-11-12T08:22:06.147Z,88.79
2017-11-12T08:23:06.062Z,88.79
2017-11-12T08:24:05.978Z,88.60
2017-11-12T08:25:05.892Z,88.23
2017-11-12T08:26:05.800Z,88.99
2017-11-12T08:27:05.719Z,88.89
2017-11-12T08:28:05.637Z,88.60
2017-11-12T08:29:05.547Z,87.85
2017-11-12T08:30:05.469Z,88.23
2017-11-12T08:31:05.384Z,89.18
2017-11-12T08:32:05.291Z,89.27
2017-11-12T08:33:05.204Z,89.27
2017-11-12T08:34:05.112Z,89.08
2017-11-12T08:35:05.025Z,89.47
2017-11-12T08:36:04.941Z,90.13
2017-11-12T08:37:04.859Z,89.65
2017-11-12T08:38:04.764Z,89.94
2017-11-12T08:39:04.681Z,89.18
2017-11-12T08:40:04.605Z,89.75
2017-11-12T08:41:04.513Z,89.75
2017-11-12T08:42:04.427Z,90.42
2017-11-12T08:43:04.340Z,90.42
2017-11-12T08:44:04.256Z,90.13
2017-11-12T08:45:04.175Z,89.84
2017-11-12T08:46:04.086Z,90.32
2017-11-12T08:47:04.000Z,90.61
2017-11-12T08:48:03.911Z,90.03
2017-11-12T08:49:03.831Z,89.65
2017-11-12T08:50:03.756Z,89.94
2017-11-12T08:51:03.727Z,90.13
2017-11-12T08:52:03.573Z,89.75
2017-11-12T08:53:03.486Z,89.75
2017-11-12T08:54:03.399Z,89.94
2017-11-12T08:55:03.358Z,90.13
2017-11-12T08:56:03.230Z,90.42
2017-11-12T08:57:03.189Z,90.13
2017-11-12T08:58:03.058Z,89.56
2017-11-12T08:59:02.987Z,89.56
2017-11-12T09:00:02.889Z,89.56
2017-11-12T09:01:02.812Z,89.08
2017-11-12T09:02:02.715Z,89.56
2017-11-12T09:03:02.632Z,89.08
2017-11-12T09:04:02.545Z,88.99
2017-11-12T09:05:02.471Z,89.27
2017-11-12T09:06:02.377Z,89.47
2017-11-12T09:07:02.288Z,89.56
2017-11-12T09:08:02.209Z,89.84
2017-11-12T09:09:02.128Z,89.56
2017-11-12T09:10:02.030Z,89.65
2017-11-12T09:11:01.997Z,89.75
2017-11-12T09:12:01.857Z,89.65
2017-11-12T09:13:01.770Z,90.42
2017-11-12T09:14:01.685Z,90.03
2017-11-12T09:15:01.623Z,90.70
2017-11-12T09:16:01.516Z,89.94
2017-11-12T09:17:01.438Z,89.94
2017-11-12T09:18:01.346Z,90.70
2017-11-12T09:19:01.262Z,90.13
2017-11-12T09:20:01.180Z,90.61
2017-11-12T09:21:01.083Z,90.61
2017-11-12T09:22:01.007Z,89.47
2017-11-12T09:23:00.913Z,89.27
2017-11-12T09:24:00.824Z,89.47
2017-11-12T09:25:00.738Z,89.84
2017-11-12T09:26:00.653Z,89.56
2017-11-12T09:27:00.574Z,90.22
2017-11-12T09:28:00.479Z,90.70
2017-11-12T09:29:00.396Z,90.32
2017-11-12T09:30:00.307Z,89.94
2017-11-12T09:31:00.221Z,89.94
2017-11-12T09:32:00.136Z,89.56
2017-11-12T09:33:00.058Z,89.94
2017-11-12T09:33:59.970Z,89.75
2017-11-12T09:34:59.875Z,90.13
2017-11-12T09:35:59.787Z,89.94
2017-11-12T09:36:59.702Z,89.56
2017-11-12T09:37:59.618Z,89.75
2017-11-12T09:38:59.534Z,89.37
2017-11-12T09:39:59.445Z,89.56
2017-11-12T09:40:59.372Z,89.75
2017-11-12T09:41:59.324Z,90.13
2017-11-12T09:42:59.196Z,91.65
2017-11-12T09:43:59.116Z,92.41
2017-11-12T09:44:59.021Z,91.17
2017-11-12T09:45:58.937Z,91.46
2017-11-12T09:46:58.856Z,90.99
2017-11-12T09:47:58.765Z,90.22
2017-11-12T09:48:58.677Z,90.03
2017-11-12T09:49:58.592Z,89.94
2017-11-12T09:50:58.545Z,90.13
2017-11-12T09:51:58.435Z,90.32
2017-11-12T09:52:58.353Z,90.22
2017-11-12T09:53:58.251Z,90.13
2017-11-12T09:54:58.167Z,89.94
2017-11-12T09:55:58.075Z,90.32
2017-11-12T09:56:57.992Z,90.32
2017-11-12T09:57:57.910Z,89.94
2017-11-12T09:58:57.825Z,90.03
2017-11-12T09:59:57.733Z,90.03
2017-11-12T10:00:57.654Z,90.13
2017-11-12T10:01:57.563Z,90.70
2017-11-12T10:02:57.480Z,90.61
2017-11-12T10:03:57.405Z,90.99
2017-11-12T10:04:57.307Z,90.70
2017-11-12T10:05:57.223Z,90.42
2017-11-12T10:06:57.138Z,89.75
2017-11-12T10:07:57.047Z,89.94
2017-11-12T10:08:56.963Z,90.32
2017-11-12T10:09:56.883Z,90.89
2017-11-12T10:10:56.789Z,91.65
2017-11-12T10:11:56.711Z,91.46
2017-11-12T10:12:56.625Z,90.89
2017-11-12T10:13:56.532Z,90.70
2017-11-12T10:14:56.457Z,90.51
2017-11-12T10:15:56.421Z,90.70
2017-11-12T10:16:56.268Z,91.08
2017-11-12T10:17:56.187Z,91.27
2017-11-12T10:18:56.101Z,90.70
2017-11-12T10:19:56.017Z,91.46
2017-11-12T10:20:55.926Z,91.65
2017-11-12T10:21:55.903Z,90.51
2017-11-12T10:22:55.777Z,90.70
2017-11-12T10:23:55.663Z,90.22
2017-11-12T10:24:55.575Z,90.70
2017-11-12T10:25:55.492Z,90.65
2017-11-12T10:26:55.407Z,90.36
2017-11-12T10:27:55.319Z,90.36
2017-11-12T10:28:55.229Z,90.51
2017-11-12T10:29:55.143Z,91.37
2017-11-12T10:30:55.061Z,90.46
2017-11-12T10:31:54.973Z,89.79
2017-11-12T10:32:54.893Z,90.08
2017-11-12T10:33:54.820Z,89.84
2017-11-12T10:34:54.731Z,91.37
2017-11-12T10:35:54.644Z,91.27
2017-11-12T10:36:54.544Z,91.75
2017-11-12T10:37:54.458Z,91.84
2017-11-12T10:38:54.373Z,91.65
2017-11-12T10:39:54.294Z,92.32
2017-11-12T10:40:54.204Z,92.03
2017-11-12T10:41:54.111Z,91.37
2017-11-12T10:42:54.028Z,91.41
2017-11-12T10:43:53.984Z,91.46
2017-11-12T10:44:53.857Z,91.31
2017-11-12T10:45:53.781Z,91.37
2017-11-12T10:46:53.688Z,91.65
2017-11-12T10:47:53.611Z,91.17
2017-11-12T10:48:53.515Z,91.37
2017-11-12T10:49:53.429Z,90.99
2017-11-12T10:50:53.344Z,91.27
2017-11-12T10:51:53.260Z,91.65
2017-11-12T10:52:53.181Z,91.31
2017-11-12T10:53:53.101Z,91.79
2017-11-12T10:54:53.009Z,91.31
2017-11-12T10:55:52.923Z,91.60
2017-11-12T10:56:52.846Z,91.60
2017-11-12T10:57:52.758Z,91.22
2017-11-12T10:58:52.666Z,91.79
2017-11-12T10:59:52.577Z,91.70
2017-11-12T11:00:52.499Z,92.08
2017-11-12T11:01:52.412Z,92.13
2017-11-12T11:02:52.321Z,92.22
2017-11-12T11:03:52.252Z,93.46
2017-11-12T11:04:52.183Z,94.37
2017-11-12T11:05:52.063Z,94.27
2017-11-12T11:06:51.993Z,94.08
2017-11-12T11:07:51.898Z,94.18
2017-11-12T11:08:51.820Z,93.98
2017-11-12T11:09:51.723Z,94.27
2017-11-12T11:10:51.641Z,94.46
2017-11-12T11:11:51.544Z,94.27
2017-11-12T11:12:51.460Z,93.51
2017-11-12T11:13:51.374Z,93.41
2017-11-12T11:14:51.290Z,93.32
2017-11-12T11:15:51.206Z,92.75
2017-11-12T11:16:51.119Z,92.18
2017-11-12T11:17:51.028Z,92.84
2017-11-12T11:18:50.947Z,93.23
2017-11-12T11:19:50.849Z,93.89
2017-11-12T11:20:50.775Z,94.70
2017-11-12T11:21:50.671Z,94.03
2017-11-12T11:22:50.596Z,94.32
2017-11-12T11:23:50.500Z,94.60
2017-11-12T11:24:50.411Z,94.22
2017-11-12T11:25:50.328Z,93.94
2017-11-12T11:26:50.271Z,93.55
2017-11-12T11:27:50.202Z,93.13
2017-11-12T11:28:50.087Z,92.94
2017-11-12T11:29:50.007Z,93.04
2017-11-12T11:30:49.912Z,92.94
2017-11-12T11:31:49.839Z,92.75
2017-11-12T11:32:49.719Z,92.46
2017-11-12T11:33:49.652Z,92.75
2017-11-12T11:34:49.550Z,92.56
2017-11-12T11:35:49.612Z,92.51
2017-11-12T11:36:49.424Z,93.46
2017-11-12T11:37:49.301Z,94.32
2017-11-12T11:38:49.194Z,94.22
2017-11-12T11:39:49.124Z,93.27
2017-11-12T11:40:49.054Z,92.99
2017-11-12T11:41:48.935Z,93.18
2017-11-12T11:42:48.853Z,92.80
2017-11-12T11:43:48.758Z,93.37
2017-11-12T11:44:48.671Z,93.37
2017-11-12T11:45:48.590Z,93.23
2017-11-12T11:46:48.501Z,93.70
2017-11-12T11:47:48.411Z,93.32
2017-11-12T11:48:48.317Z,93.99
2017-11-12T11:49:48.229Z,94.22
2017-11-12T11:50:48.161Z,93.51
2017-11-12T11:51:48.063Z,93.60
2017-11-12T11:52:47.967Z,93.41
2017-11-12T11:53:47.876Z,94.08
2017-11-12T11:54:47.803Z,93.23
2017-11-12T11:55:47.751Z,93.41
2017-11-12T11:56:47.611Z,93.32
2017-11-12T11:57:47.530Z,92.90
2017-11-12T11:58:47.442Z,93.08
2017-11-12T11:59:47.343Z,93.18
2017-11-12T12:00:47.261Z,92.66
2017-11-12T12:01:47.163Z,92.37
2017-11-12T12:02:47.076Z,92.61
2017-11-12T12:03:46.989Z,92.32
2017-11-12T12:04:46.901Z,91.75
2017-11-12T12:05:46.809Z,92.71
2017-11-12T12:06:46.730Z,92.61
2017-11-12T12:07:46.639Z,92.99
2017-11-12T12:08:46.541Z,92.90
2017-11-12T12:09:46.455Z,92.32
2017-11-12T12:10:46.503Z,92.13
2017-11-12T12:11:46.274Z,92.04
2017-11-12T12:12:46.185Z,92.32
2017-11-12T12:13:46.096Z,92.04
2017-11-12T12:14:46.002Z,91.47
2017-11-12T12:15:45.915Z,91.85
2017-11-12T12:16:45.834Z,91.28
2017-11-12T12:17:45.738Z,91.66
2017-11-12T12:18:45.650Z,90.80
2017-11-12T12:19:45.559Z,90.80
2017-11-12T12:20:45.487Z,91.28
2017-11-12T12:21:45.387Z,90.42
2017-11-12T12:22:45.300Z,91.19
2017-11-12T12:23:45.237Z,91.38
2017-11-12T12:24:45.189Z,91.75
2017-11-12T12:25:45.030Z,90.42
2017-11-12T12:26:44.953Z,90.95
2017-11-12T12:27:44.843Z,91.09
2017-11-12T12:28:44.756Z,89.76
2017-11-12T12:29:44.679Z,88.81
2017-11-12T12:30:44.582Z,89.09
2017-11-12T12:31:44.500Z,87.71
2017-11-12T12:32:44.410Z,87.62
2017-11-12T12:33:44.312Z,87.14
2017-11-12T12:34:44.228Z,85.15
2017-11-12T12:35:44.144Z,86.00
2017-11-12T12:36:44.047Z,87.14
2017-11-12T12:37:43.982Z,87.14
2017-11-12T12:38:43.879Z,86.29
2017-11-12T12:39:43.805Z,85.91
2017-11-12T12:40:43.711Z,85.24
2017-11-12T12:41:43.611Z,85.53
2017-11-12T12:42:43.520Z,85.34
2017-11-12T12:43:43.432Z,86.19
2017-11-12T12:44:43.347Z,85.53
2017-11-12T12:45:43.255Z,86.10
2017-11-12T12:46:43.169Z,86.00
2017-11-12T12:47:43.084Z,86.19
2017-11-12T12:48:42.998Z,85.47
2017-11-12T12:49:42.904Z,85.53
2017-11-12T12:50:42.818Z,86.10
2017-11-12T12:51:42.732Z,86.61